Time;durP1;ratioP1;P1;durP2;ratioP2;P2;SDS_P1;SDS_P2;PMS_P1;PMS_P2;Temp;Humidity;BMP_temperature;BMP_pressure;BME280_temperature;BME280_humidity;BME280_pressure;Samples;Min_cycle;Max_cycle;Signal;HPM_P1;HPM_P2
2024/02/16 00:01:21;;;;;;;20.50;10.40;;;;;;;7.53;90.24;100625.80;129588;1261;115386;-64
2024/02/16 00:04:23;;;;;;;19.50;12.00;;;;;;;7.56;90.18;100628.58;129572;1274;115166;-65
2024/02/16 00:07:25;;;;;;;17.20;11.70;;;;;;;7.57;90.46;100624.79;129643;1261;114743;-65
2024/02/16 00:10:27;;;;;;;20.00;12.00;;;;;;;7.60;90.31;100621.34;129638;1260;114716;-64
2024/02/16 00:13:29;;;;;;;18.20;11.40;;;;;;;7.64;90.38;100617.30;129483;1261;115151;-65
2024/02/16 00:16:32;;;;;;;20.00;11.20;;;;;;;7.66;90.55;100612.42;129770;1258;114792;-65
2024/02/16 00:19:34;;;;;;;22.00;12.60;;;;;;;7.68;90.55;100607.76;129622;1280;129586;-65
2024/02/16 00:22:36;;;;;;;20.30;11.60;;;;;;;7.70;90.64;100609.63;129607;1276;114725;-65
2024/02/16 00:25:40;;;;;;;19.30;11.80;;;;;;;7.71;90.15;100606.76;129732;1261;115216;-65
2024/02/16 00:28:43;;;;;;;20.80;12.10;;;;;;;7.71;90.25;100603.19;129665;1260;114767;-63
2024/02/16 00:31:45;;;;;;;20.80;11.80;;;;;;;7.72;90.14;100603.52;129672;1258;114742;-65
2024/02/16 00:34:47;;;;;;;20.40;12.80;;;;;;;7.72;90.50;100600.67;129489;1257;114762;-66
2024/02/16 00:37:49;;;;;;;24.30;14.90;;;;;;;7.71;90.37;100601.58;129684;1257;114838;-66
2024/02/16 00:40:51;;;;;;;23.70;15.20;;;;;;;7.72;90.22;100603.00;129754;1273;128827;-65
2024/02/16 00:43:53;;;;;;;19.70;12.60;;;;;;;7.71;90.12;100611.21;129613;1263;114720;-62
2024/02/16 00:46:55;;;;;;;26.30;14.30;;;;;;;7.69;90.50;100610.73;129765;1261;115431;-63
2024/02/16 00:49:58;;;;;;;26.40;14.90;;;;;;;7.65;90.40;100610.31;129544;1264;114845;-65
2024/02/16 00:53:01;;;;;;;23.10;13.60;;;;;;;7.61;90.36;100611.89;129579;1261;114785;-64
2024/02/16 00:56:04;;;;;;;21.60;12.80;;;;;;;7.55;90.13;100612.24;129526;1261;114801;-64
2024/02/16 00:59:08;;;;;;;23.00;14.10;;;;;;;7.51;90.28;100612.92;129503;1262;114769;-64
2024/02/16 01:02:11;;;;;;;23.80;14.70;;;;;;;7.46;90.06;100609.14;129549;1263;114723;-63
2024/02/16 01:05:13;;;;;;;28.10;17.70;;;;;;;7.40;90.22;100611.64;129585;1261;114732;-65
2024/02/16 01:08:16;;;;;;;24.30;13.90;;;;;;;7.34;89.96;100612.02;129644;1263;114702;-65
2024/02/16 01:11:19;;;;;;;27.50;15.50;;;;;;;7.28;90.16;100608.30;129569;1280;114711;-64
2024/02/16 01:14:21;;;;;;;27.40;15.40;;;;;;;7.22;89.90;100610.27;129613;1261;114698;-64
2024/02/16 01:17:23;;;;;;;30.00;17.90;;;;;;;7.17;89.86;100610.59;129476;1259;114784;-64
2024/02/16 01:20:26;;;;;;;27.90;17.30;;;;;;;7.10;90.03;100611.33;129606;1257;114778;-65
2024/02/16 01:23:28;;;;;;;23.50;14.00;;;;;;;7.03;90.33;100609.92;129722;1260;114783;-65
2024/02/16 01:26:31;;;;;;;26.90;15.20;;;;;;;6.96;90.38;100607.12;129452;1261;210037;-65
2024/02/16 01:29:33;;;;;;;26.20;14.90;;;;;;;6.90;90.40;100605.52;129667;1261;114742;-65
2024/02/16 01:32:36;;;;;;;27.00;16.20;;;;;;;6.84;90.61;100604.45;129893;1264;114806;-65
2024/02/16 01:35:39;;;;;;;30.40;16.80;;;;;;;6.79;90.61;100602.13;129700;1261;115151;-65
2024/02/16 01:38:41;;;;;;;27.10;15.40;;;;;;;6.74;90.74;100596.40;129708;1259;129112;-65
2024/02/16 01:41:43;;;;;;;28.60;16.10;;;;;;;6.70;90.83;100599.73;129432;1261;114779;-63
2024/02/16 01:44:45;;;;;;;29.80;17.60;;;;;;;6.66;90.74;100599.10;129560;1258;114758;-63
2024/02/16 01:47:49;;;;;;;27.30;17.40;;;;;;;6.62;90.71;100599.92;129485;1262;114867;-63
2024/02/16 01:50:52;;;;;;;25.00;15.70;;;;;;;6.58;91.03;100595.62;129525;1261;114702;-63
2024/02/16 01:53:55;;;;;;;24.60;14.00;;;;;;;6.54;91.33;100592.33;129521;1257;114752;-63
2024/02/16 01:56:59;;;;;;;23.40;15.30;;;;;;;6.51;91.26;100590.30;129589;1259;114720;-63
2024/02/16 02:00:01;;;;;;;25.10;15.10;;;;;;;6.48;91.45;100582.05;129743;1257;114797;-63
2024/02/16 02:03:03;;;;;;;26.60;15.30;;;;;;;6.46;91.65;100582.65;129649;1262;114833;-64
2024/02/16 02:06:05;;;;;;;20.30;14.20;;;;;;;6.44;91.70;100574.00;129609;1257;115235;-63
2024/02/16 02:09:09;;;;;;;18.50;10.30;;;;;;;6.43;91.85;100568.53;129573;1261;114724;-63
2024/02/16 02:12:11;;;;;;;24.40;15.00;;;;;;;6.40;92.14;100563.64;129554;1258;115022;-63
2024/02/16 02:15:13;;;;;;;23.10;13.20;;;;;;;6.38;92.15;100563.34;129526;1259;114840;-63
2024/02/16 02:18:15;;;;;;;23.70;15.10;;;;;;;6.36;92.25;100563.03;129625;1261;114778;-63
2024/02/16 02:21:17;;;;;;;18.90;13.10;;;;;;;6.35;92.33;100557.75;129433;1280;114832;-64
2024/02/16 02:24:20;;;;;;;20.90;12.30;;;;;;;6.34;92.52;100552.11;129463;1261;114739;-63
2024/02/16 02:27:22;;;;;;;22.20;13.40;;;;;;;6.34;92.69;100547.85;129608;1260;115046;-63
2024/02/16 02:30:24;;;;;;;21.90;13.50;;;;;;;6.33;92.76;100548.21;129535;1260;115152;-63
2024/02/16 02:33:26;;;;;;;22.30;13.90;;;;;;;6.34;92.79;100548.02;129512;1261;114729;-64
2024/02/16 02:36:28;;;;;;;14.20;9.00;;;;;;;6.33;93.01;100548.58;129467;1261;114813;-63
2024/02/16 02:39:31;;;;;;;22.10;13.30;;;;;;;6.33;93.03;100544.49;129507;1258;114700;-63
2024/02/16 02:42:33;;;;;;;23.80;15.80;;;;;;;6.32;93.07;100543.81;129359;1280;114855;-63
2024/02/16 02:45:35;;;;;;;21.20;14.30;;;;;;;6.31;92.85;100541.88;129529;1258;114642;-63
2024/02/16 02:48:37;;;;;;;25.40;15.20;;;;;;;6.30;92.81;100539.62;129594;1257;115267;-63
2024/02/16 02:51:39;;;;;;;24.90;15.90;;;;;;;6.28;92.80;100540.55;129197;1257;114800;-63
2024/02/16 02:54:41;;;;;;;26.60;16.90;;;;;;;6.27;92.78;100541.14;129584;1257;115152;-63
2024/02/16 02:57:43;;;;;;;27.10;15.90;;;;;;;6.23;92.73;100540.32;129839;1261;114859;-63
2024/02/16 03:00:45;;;;;;;25.90;15.60;;;;;;;6.20;92.73;100541.48;129502;1280;128658;-63
2024/02/16 03:03:48;;;;;;;28.10;17.90;;;;;;;6.17;92.67;100547.60;129561;1263;115300;-64
2024/02/16 03:06:53;;;;;;;29.20;18.70;;;;;;;6.13;92.52;100551.59;129834;1280;114752;-62
2024/02/16 03:09:55;;;;;;;27.10;16.40;;;;;;;6.10;92.34;100551.71;129528;1260;114699;-63
2024/02/16 03:12:57;;;;;;;27.40;17.30;;;;;;;6.04;92.32;100550.24;129446;1280;114756;-64
2024/02/16 03:15:59;;;;;;;29.00;15.40;;;;;;;6.00;92.23;100554.25;129638;1257;114814;-63
2024/02/16 03:19:01;;;;;;;23.50;14.60;;;;;;;5.95;92.40;100559.14;129414;1264;128504;-65
2024/02/16 03:22:03;;;;;;;25.40;16.70;;;;;;;5.90;92.67;100560.68;129569;1261;114822;-63
2024/02/16 03:25:05;;;;;;;27.40;17.50;;;;;;;5.87;92.52;100563.97;129640;1257;114752;-63
2024/02/16 03:28:13;;;;;;;25.40;15.70;;;;;;;5.82;92.33;100563.38;129541;1258;115203;-64
2024/02/16 03:31:21;;;;;;;30.60;18.80;;;;;;;5.78;92.67;100566.33;129736;1259;115376;-64
2024/02/16 03:34:23;;;;;;;23.20;12.90;;;;;;;5.75;92.81;100566.56;129476;1257;114841;-64
2024/02/16 03:37:25;;;;;;;28.50;15.20;;;;;;;5.73;92.99;100562.54;129443;1260;114756;-64
2024/02/16 03:40:28;;;;;;;29.70;17.50;;;;;;;5.72;93.08;100566.48;129586;1262;115334;-64
2024/02/16 03:43:30;;;;;;;27.60;15.00;;;;;;;5.69;92.96;100561.58;129440;1261;114893;-64
2024/02/16 03:46:33;;;;;;;27.70;17.40;;;;;;;5.66;93.19;100559.72;129553;1257;114806;-64
2024/02/16 03:49:35;;;;;;;25.60;14.70;;;;;;;5.65;93.39;100555.13;129562;1261;114717;-65
2024/02/16 03:52:38;;;;;;;25.20;15.80;;;;;;;5.62;93.40;100556.63;129505;1257;116368;-64
2024/02/16 03:55:41;;;;;;;28.80;17.20;;;;;;;5.60;93.65;100557.38;129554;1258;114737;-65
2024/02/16 03:58:44;;;;;;;25.20;14.30;;;;;;;5.59;93.63;100556.15;129470;1261;114816;-65
2024/02/16 04:01:46;;;;;;;28.60;16.90;;;;;;;5.58;93.57;100561.14;129535;1261;114955;-64
2024/02/16 04:04:49;;;;;;;26.60;15.90;;;;;;;5.55;93.69;100560.48;129661;1257;114796;-63
2024/02/16 04:07:51;;;;;;;24.40;14.80;;;;;;;5.54;93.74;100565.66;129654;1261;114835;-64
2024/02/16 04:10:54;;;;;;;29.40;18.20;;;;;;;5.53;93.73;100562.34;129461;1259;115111;-64
2024/02/16 04:13:56;;;;;;;28.00;16.50;;;;;;;5.52;93.89;100557.77;129513;1274;115013;-64
2024/02/16 04:16:58;;;;;;;30.70;18.70;;;;;;;5.50;93.86;100564.17;129453;1264;114717;-64
2024/02/16 04:20:01;;;;;;;24.20;13.90;;;;;;;5.48;93.96;100567.77;129566;1273;114782;-63
2024/02/16 04:23:03;;;;;;;30.00;17.90;;;;;;;5.46;93.99;100569.60;129503;1280;114784;-63
2024/02/16 04:26:06;;;;;;;23.10;15.00;;;;;;;5.42;93.97;100565.06;129283;1260;114769;-65
2024/02/16 04:29:09;;;;;;;23.60;13.00;;;;;;;5.37;94.19;100558.28;131243;1261;114740;-62
2024/02/16 04:32:12;;;;;;;29.90;18.00;;;;;;;5.34;94.51;100558.18;130025;1261;114718;-64
2024/02/16 04:35:15;;;;;;;25.60;14.30;;;;;;;5.31;94.24;100557.89;129572;1280;114782;-65
2024/02/16 04:38:18;;;;;;;29.60;16.20;;;;;;;5.28;94.27;100560.27;129488;1280;128404;-64
2024/02/16 04:41:20;;;;;;;18.60;11.60;;;;;;;5.26;94.29;100560.84;129574;1261;114715;-64
2024/02/16 04:44:22;;;;;;;29.90;17.80;;;;;;;5.26;94.32;100561.73;129623;1259;114784;-64
2024/02/16 04:47:25;;;;;;;15.90;8.90;;;;;;;5.24;94.31;100558.04;129503;1261;114784;-64
2024/02/16 04:50:27;;;;;;;28.40;16.80;;;;;;;5.21;94.34;100562.02;129470;1277;114778;-64
2024/02/16 04:53:30;;;;;;;29.60;18.70;;;;;;;5.18;94.35;100558.22;129508;1257;114708;-64
2024/02/16 04:56:32;;;;;;;29.10;18.10;;;;;;;5.15;94.34;100561.80;129530;1261;115085;-64
2024/02/16 04:59:34;;;;;;;27.90;16.50;;;;;;;5.12;94.40;100563.64;129522;1258;114748;-64
2024/02/16 05:02:36;;;;;;;21.60;13.10;;;;;;;5.09;94.37;100557.68;129400;1258;115444;-66
2024/02/16 05:05:38;;;;;;;25.20;14.50;;;;;;;5.07;94.60;100557.39;129505;1261;115229;-64
2024/02/16 05:08:41;;;;;;;27.00;14.90;;;;;;;5.04;94.81;100554.79;129713;1261;115180;-64
2024/02/16 05:11:44;;;;;;;24.80;15.00;;;;;;;5.01;94.90;100550.25;129508;1264;115156;-64
2024/02/16 05:14:50;;;;;;;14.40;9.00;;;;;;;5.00;94.84;100549.75;129555;1272;114608;-63
2024/02/16 05:17:52;;;;;;;26.60;15.80;;;;;;;4.98;95.43;100548.90;129392;1280;128378;-64
2024/02/16 05:20:55;;;;;;;18.30;11.70;;;;;;;4.98;95.32;100548.56;129459;1261;115197;-63
2024/02/16 05:23:57;;;;;;;32.70;18.30;;;;;;;4.96;95.22;100541.70;129527;1261;114739;-63
2024/02/16 05:27:00;;;;;;;32.90;17.70;;;;;;;4.94;95.51;100538.20;129599;1261;114793;-64
2024/02/16 05:30:04;;;;;;;31.30;18.00;;;;;;;4.92;95.48;100539.83;129509;1262;115257;-64
2024/02/16 05:33:07;;;;;;;31.70;17.70;;;;;;;4.91;95.42;100541.10;129409;1280;114893;-63
2024/02/16 05:36:09;;;;;;;21.80;13.10;;;;;;;4.89;95.40;100543.08;129552;1258;114834;-65
2024/02/16 05:39:26;;;;;;;12.70;7.80;;;;;;;4.88;95.45;100541.35;129603;1261;115146;-64
2024/02/16 05:42:30;;;;;;;19.70;12.20;;;;;;;4.86;95.80;100540.33;129534;1261;114786;-64
2024/02/16 05:45:35;;;;;;;25.20;13.60;;;;;;;4.85;96.06;100545.66;129521;1257;114768;-64
2024/02/16 05:48:39;;;;;;;27.50;16.50;;;;;;;4.84;95.96;100545.32;129581;1264;114912;-64
2024/02/16 05:51:42;;;;;;;20.20;11.40;;;;;;;4.83;95.91;100541.98;129454;1280;129445;-63
2024/02/16 05:54:45;;;;;;;26.00;14.90;;;;;;;4.83;96.23;100540.03;129614;1257;115402;-64
2024/02/16 05:57:47;;;;;;;27.10;15.40;;;;;;;4.82;96.38;100544.83;129638;1262;114777;-63
2024/02/16 06:00:50;;;;;;;28.50;14.80;;;;;;;4.81;96.17;100540.42;129702;1262;114777;-64
2024/02/16 06:03:52;;;;;;;22.80;13.50;;;;;;;4.81;96.15;100544.30;129528;1259;114633;-63
2024/02/16 06:06:54;;;;;;;22.70;12.70;;;;;;;4.81;96.31;100550.68;129465;1261;114703;-64
2024/02/16 06:09:56;;;;;;;29.00;16.50;;;;;;;4.82;96.20;100554.91;129542;1259;114816;-65
2024/02/16 06:12:58;;;;;;;22.80;14.30;;;;;;;4.83;96.22;100556.66;129527;1280;128397;-64
2024/02/16 06:16:02;;;;;;;14.70;8.90;;;;;;;4.83;96.50;100550.30;129506;1280;114719;-64
2024/02/16 06:19:06;;;;;;;30.00;14.50;;;;;;;4.84;96.59;100549.02;129514;1261;114718;-64
2024/02/16 06:22:08;;;;;;;25.40;13.70;;;;;;;4.87;96.74;100542.09;129566;1257;115085;-64
2024/02/16 06:25:10;;;;;;;24.30;14.00;;;;;;;4.91;96.59;100541.98;129442;1261;115270;-66
2024/02/16 06:28:12;;;;;;;29.10;16.00;;;;;;;4.93;96.72;100539.63;129582;1259;114720;-65
2024/02/16 06:31:14;;;;;;;27.00;15.00;;;;;;;4.97;96.99;100542.20;129447;1280;127956;-63
2024/02/16 06:34:18;;;;;;;21.20;12.60;;;;;;;5.02;96.98;100550.58;129527;1280;114705;-64
2024/02/16 06:37:19;;;;;;;22.60;13.50;;;;;;;5.08;97.12;100548.70;129907;1261;114716;-67
2024/02/16 06:40:22;;;;;;;22.20;14.10;;;;;;;5.13;97.31;100545.73;129615;1261;115359;-63
2024/02/16 06:43:24;;;;;;;16.80;9.70;;;;;;;5.20;97.69;100546.81;129490;1259;114812;-63
2024/02/16 06:46:27;;;;;;;22.80;12.00;;;;;;;5.26;97.76;100546.14;129433;1264;114832;-64
2024/02/16 06:49:29;;;;;;;25.10;14.50;;;;;;;5.35;97.94;100541.86;129562;1263;128854;-64
2024/02/16 06:52:31;;;;;;;20.60;12.70;;;;;;;5.44;97.95;100543.93;129495;1262;115277;-64
2024/02/16 06:55:33;;;;;;;23.10;14.60;;;;;;;5.54;97.90;100545.82;129632;1280;115276;-64
2024/02/16 06:58:36;;;;;;;19.10;11.30;;;;;;;5.65;97.95;100555.48;129458;1259;114788;-64
2024/02/16 07:01:41;;;;;;;21.20;12.60;;;;;;;5.77;98.13;100561.73;129547;1261;115234;-63
2024/02/16 07:04:43;;;;;;;20.90;12.80;;;;;;;5.89;98.01;100561.95;129541;1280;114803;-64
2024/02/16 07:07:45;;;;;;;16.70;10.90;;;;;;;6.01;97.80;100564.33;129486;1261;114835;-63
2024/02/16 07:10:48;;;;;;;21.00;13.70;;;;;;;6.10;97.47;100561.61;129589;1259;114745;-64
2024/02/16 07:13:50;;;;;;;17.50;10.10;;;;;;;6.17;97.42;100566.02;129531;1259;114681;-64
2024/02/16 07:16:52;;;;;;;19.30;11.90;;;;;;;6.27;97.37;100570.56;129398;1261;116004;-64
2024/02/16 07:19:54;;;;;;;18.80;11.70;;;;;;;6.35;97.23;100573.52;129521;1259;115508;-64
2024/02/16 07:22:56;;;;;;;21.20;13.30;;;;;;;6.44;97.20;100573.29;129498;1261;115140;-64
2024/02/16 07:25:58;;;;;;;21.60;13.80;;;;;;;6.52;97.11;100573.59;129658;1261;114723;-65
2024/02/16 07:29:01;;;;;;;18.10;11.80;;;;;;;6.61;97.02;100572.63;129745;1261;114722;-64
2024/02/16 07:32:03;;;;;;;20.40;12.00;;;;;;;6.73;97.02;100572.12;129636;1259;114701;-64
2024/02/16 07:35:06;;;;;;;20.90;12.90;;;;;;;6.84;96.86;100566.98;129300;1280;114912;-64
2024/02/16 07:38:08;;;;;;;11.10;6.40;;;;;;;6.98;97.05;100564.97;129505;1261;114732;-64
2024/02/16 07:41:10;;;;;;;20.50;12.10;;;;;;;7.17;97.00;100568.30;129541;1258;114714;-64
2024/02/16 07:44:12;;;;;;;17.20;11.10;;;;;;;7.44;96.89;100566.58;129527;1259;114683;-64
2024/02/16 07:47:15;;;;;;;14.50;8.00;;;;;;;7.72;97.08;100562.98;129426;1280;116343;-63
2024/02/16 07:50:21;;;;;;;17.50;11.80;;;;;;;8.04;96.91;100560.48;129510;1273;114819;-64
2024/02/16 07:53:24;;;;;;;17.80;12.50;;;;;;;8.35;96.65;100555.48;129505;1280;114814;-64
2024/02/16 07:56:26;;;;;;;15.70;11.40;;;;;;;8.67;96.48;100553.97;129551;1261;115417;-64
2024/02/16 07:59:28;;;;;;;14.90;11.10;;;;;;;8.98;95.98;100554.22;129939;1261;114693;-64
2024/02/16 08:02:30;;;;;;;15.30;10.40;;;;;;;9.30;95.90;100551.55;129653;1259;115305;-64
2024/02/16 08:05:32;;;;;;;15.60;11.50;;;;;;;9.63;95.38;100547.91;129425;1259;116401;-64
2024/02/16 08:08:35;;;;;;;14.30;10.20;;;;;;;9.92;94.73;100548.80;129512;1261;114794;-64
2024/02/16 08:11:37;;;;;;;13.60;8.80;;;;;;;10.22;94.61;100542.52;129638;1261;114812;-64
2024/02/16 08:14:40;;;;;;;14.60;9.30;;;;;;;10.51;93.58;100547.70;129608;1280;114800;-64
2024/02/16 08:17:42;;;;;;;12.50;8.70;;;;;;;10.77;93.09;100547.61;129546;1280;114806;-65
2024/02/16 08:20:45;;;;;;;12.40;8.60;;;;;;;11.02;92.89;100546.09;129453;1259;114819;-64
2024/02/16 08:23:47;;;;;;;12.70;9.90;;;;;;;11.24;91.69;100546.65;129725;1261;114697;-64
2024/02/16 08:26:49;;;;;;;14.40;11.10;;;;;;;11.46;91.49;100545.90;129537;1261;114826;-63
2024/02/16 08:29:54;;;;;;;13.10;8.50;;;;;;;11.57;89.71;100534.29;129514;1261;114744;-63
2024/02/16 08:32:58;;;;;;;11.70;8.70;;;;;;;11.68;89.85;100532.13;129670;1265;114824;-63
2024/02/16 08:36:00;;;;;;;13.00;9.30;;;;;;;11.79;88.74;100526.23;129444;1264;114893;-63
2024/02/16 08:39:02;;;;;;;16.10;9.20;;;;;;;11.89;88.32;100522.67;129782;1259;114769;-64
2024/02/16 08:42:05;;;;;;;14.90;10.00;;;;;;;11.99;88.29;100523.95;129582;1261;114794;-63
2024/02/16 08:45:09;;;;;;;10.80;7.10;;;;;;;12.08;87.13;100521.91;129676;1259;115795;-63
2024/02/16 08:48:11;;;;;;;12.10;8.40;;;;;;;12.09;86.12;100521.30;129569;1265;127809;-63
2024/02/16 08:51:13;;;;;;;12.80;8.40;;;;;;;12.13;86.11;100517.52;129460;1280;115193;-63
2024/02/16 08:54:18;;;;;;;12.10;8.00;;;;;;;12.18;86.00;100511.36;129556;1261;115009;-63
2024/02/16 08:57:20;;;;;;;12.70;8.80;;;;;;;12.26;85.34;100511.66;129351;1257;114917;-64
2024/02/16 09:00:23;;;;;;;11.00;7.90;;;;;;;12.39;85.01;100505.77;129812;1261;114698;-63
2024/02/16 09:03:25;;;;;;;12.70;8.80;;;;;;;12.45;83.97;100504.69;129631;1261;115200;-63
2024/02/16 09:06:28;;;;;;;14.60;8.70;;;;;;;12.49;84.13;100504.67;129562;1280;114894;-63
2024/02/16 09:09:30;;;;;;;9.80;7.60;;;;;;;12.52;83.71;100503.27;129510;1280;128384;-63
2024/02/16 09:12:33;;;;;;;11.30;7.60;;;;;;;12.59;82.76;100504.16;129596;1259;114739;-63
2024/02/16 09:15:36;;;;;;;9.80;7.30;;;;;;;12.68;83.11;100504.41;129681;1265;114918;-64
2024/02/16 09:18:39;;;;;;;10.70;7.50;;;;;;;12.84;82.94;100499.37;129523;1274;114962;-63
2024/02/16 09:21:41;;;;;;;9.30;7.30;;;;;;;12.99;82.29;100497.30;129685;1259;114869;-63
2024/02/16 09:24:46;;;;;;;9.70;7.70;;;;;;;13.16;82.46;100499.19;129770;1261;114701;-63
2024/02/16 09:27:49;;;;;;;9.70;6.90;;;;;;;13.36;81.81;100497.70;129494;1259;127825;-64
2024/02/16 09:30:51;;;;;;;8.80;5.70;;;;;;;13.56;81.19;100499.80;129477;1261;114754;-64
2024/02/16 09:33:53;;;;;;;8.80;6.70;;;;;;;13.70;80.16;100499.00;129528;1271;114689;-64
2024/02/16 09:36:55;;;;;;;11.40;5.60;;;;;;;13.81;79.09;100494.55;129598;1265;114867;-63
2024/02/16 09:39:58;;;;;;;10.50;6.70;;;;;;;13.84;78.43;100497.80;129585;1265;114710;-63
2024/02/16 09:43:00;;;;;;;8.90;6.40;;;;;;;13.81;77.11;100497.21;129644;1280;114854;-64
2024/02/16 09:46:03;;;;;;;10.40;6.40;;;;;;;13.77;76.81;100496.38;129581;1259;115425;-63
2024/02/16 09:49:05;;;;;;;7.80;5.30;;;;;;;13.68;76.68;100496.77;129476;1264;128091;-64
2024/02/16 09:52:13;;;;;;;8.60;5.30;;;;;;;13.57;76.41;100496.70;129625;1259;114777;-65
2024/02/16 09:55:16;;;;;;;7.70;5.50;;;;;;;13.43;76.01;100500.16;129582;1260;114713;-64
2024/02/16 09:58:19;;;;;;;10.50;6.00;;;;;;;13.28;75.60;100506.05;129597;1259;114778;-64
2024/02/16 10:01:23;;;;;;;8.50;6.50;;;;;;;13.14;75.51;100508.10;129861;1261;114682;-64
2024/02/16 10:04:25;;;;;;;8.90;5.80;;;;;;;13.04;75.69;100507.91;129607;1264;114870;-65
2024/02/16 10:07:31;;;;;;;8.90;5.40;;;;;;;13.01;75.80;100507.58;129630;1261;116438;-64
2024/02/16 10:10:37;;;;;;;7.90;5.60;;;;;;;13.03;75.64;100507.27;129544;1262;114698;-64
2024/02/16 10:13:39;;;;;;;7.10;5.40;;;;;;;13.08;75.13;100508.44;129505;1261;114714;-64
2024/02/16 10:16:41;;;;;;;7.00;5.20;;;;;;;13.14;75.37;100504.15;129491;1264;114793;-64
2024/02/16 10:19:43;;;;;;;7.10;4.30;;;;;;;13.25;75.40;100503.16;129551;1277;114740;-64
2024/02/16 10:22:45;;;;;;;8.00;5.90;;;;;;;13.36;74.81;100501.64;129438;1280;128426;-64
2024/02/16 10:25:47;;;;;;;5.30;3.30;;;;;;;13.43;74.75;100501.46;129496;1261;114751;-64
2024/02/16 10:28:55;;;;;;;9.20;6.20;;;;;;;13.49;74.54;100499.27;129520;1261;114700;-64
2024/02/16 10:31:57;;;;;;;8.70;5.10;;;;;;;13.56;74.59;100495.30;129478;1280;114724;-64
2024/02/16 10:34:59;;;;;;;12.00;5.80;;;;;;;13.62;74.45;100497.28;129409;1259;114714;-64
2024/02/16 10:38:06;;;;;;;9.00;6.20;;;;;;;13.67;73.38;100494.31;129640;1261;114782;-64
2024/02/16 10:41:09;;;;;;;9.80;5.70;;;;;;;13.68;73.41;100492.80;129391;1259;115246;-64
2024/02/16 10:44:11;;;;;;;8.50;5.90;;;;;;;13.73;73.40;100489.13;129452;1262;114715;-64
2024/02/16 10:47:13;;;;;;;6.50;4.60;;;;;;;13.77;73.23;100488.17;129474;1261;114819;-64
2024/02/16 10:50:16;;;;;;;11.30;5.50;;;;;;;13.80;72.62;100483.68;129706;1261;114734;-64
2024/02/16 10:53:23;;;;;;;8.60;6.10;;;;;;;13.81;72.72;100476.43;129421;1261;114770;-64
2024/02/16 10:56:43;;;;;;;8.40;6.00;;;;;;;13.83;72.23;100470.00;129575;1262;114674;-64
2024/02/16 10:59:47;;;;;;;9.90;6.40;;;;;;;13.83;71.84;100459.95;129458;1262;114997;-64
2024/02/16 11:02:59;;;;;;;8.30;5.80;;;;;;;13.84;72.34;100457.17;129271;1280;127443;-64
2024/02/16 11:06:01;;;;;;;7.50;5.60;;;;;;;13.89;72.48;100455.83;129472;1259;115339;-64
2024/02/16 11:09:10;;;;;;;6.90;4.80;;;;;;;13.96;72.73;100447.66;129445;1269;114748;-65
2024/02/16 11:12:15;;;;;;;8.20;5.20;;;;;;;14.03;72.18;100445.28;129445;1259;115108;-65
2024/02/16 11:15:27;;;;;;;7.60;6.00;;;;;;;14.08;72.29;100444.25;129774;1259;114797;-65
2024/02/16 11:18:30;;;;;;;12.50;5.40;;;;;;;14.16;72.23;100438.39;129369;1261;127548;-65
2024/02/16 11:21:32;;;;;;;10.50;6.80;;;;;;;14.22;71.35;100435.37;129502;1262;114753;-65
2024/02/16 11:24:35;;;;;;;8.80;6.20;;;;;;;14.25;71.15;100431.20;129513;1277;114832;-64
2024/02/16 11:27:39;;;;;;;7.80;5.70;;;;;;;14.29;71.12;100426.23;129458;1259;114791;-64
2024/02/16 11:30:41;;;;;;;7.90;5.30;;;;;;;14.35;70.80;100419.41;129497;1261;114934;-65
2024/02/16 11:33:45;;;;;;;6.90;5.30;;;;;;;14.40;70.75;100415.85;129523;1259;114861;-65
2024/02/16 11:36:47;;;;;;;7.40;4.70;;;;;;;14.44;70.20;100415.41;129658;1263;114737;-65
2024/02/16 11:39:55;;;;;;;9.00;5.80;;;;;;;14.50;70.28;100410.20;129568;1261;114677;-65
2024/02/16 11:42:59;;;;;;;7.80;5.20;;;;;;;14.57;70.08;100407.96;129606;1261;114748;-65
2024/02/16 11:46:14;;;;;;;11.90;6.40;;;;;;;14.60;69.39;100409.04;129582;1262;116427;-65
2024/02/16 11:49:17;;;;;;;9.40;5.80;;;;;;;14.63;69.75;100407.54;129530;1271;114827;-65
2024/02/16 11:52:19;;;;;;;8.50;6.10;;;;;;;14.65;68.77;100403.84;129584;1280;114774;-65
2024/02/16 11:55:22;;;;;;;6.70;5.20;;;;;;;14.69;69.23;100405.59;129480;1262;114699;-65
2024/02/16 11:58:24;;;;;;;7.80;5.30;;;;;;;14.74;69.07;100404.19;129782;1261;114699;-65
2024/02/16 12:01:27;;;;;;;7.90;5.10;;;;;;;14.77;68.67;100405.48;129666;1271;114740;-65
2024/02/16 12:04:30;;;;;;;8.00;5.70;;;;;;;14.74;68.21;100403.27;129434;1263;114948;-65
2024/02/16 12:07:33;;;;;;;7.60;5.50;;;;;;;14.72;68.02;100400.70;129598;1261;114740;-65
2024/02/16 12:10:36;;;;;;;7.00;5.00;;;;;;;14.71;67.64;100395.74;129628;1280;114844;-65
2024/02/16 12:13:39;;;;;;;8.20;5.00;;;;;;;14.68;66.94;100397.01;129523;1259;114747;-65
2024/02/16 12:16:41;;;;;;;8.00;5.30;;;;;;;14.67;67.28;100395.61;129732;1261;114692;-65
2024/02/16 12:19:45;;;;;;;7.30;5.10;;;;;;;14.67;67.23;100388.96;129585;1271;114838;-65
2024/02/16 12:22:47;;;;;;;6.10;4.20;;;;;;;14.69;66.91;100389.05;129599;1262;115129;-65
2024/02/16 12:25:49;;;;;;;5.90;4.40;;;;;;;14.72;67.47;100386.67;129734;1271;114874;-65
2024/02/16 12:28:51;;;;;;;10.90;4.70;;;;;;;14.77;67.39;100390.73;129483;1257;115495;-65
2024/02/16 12:31:54;;;;;;;6.10;4.10;;;;;;;14.82;67.30;100385.17;129251;1257;128524;-65
2024/02/16 12:34:57;;;;;;;7.10;4.20;;;;;;;14.85;67.11;100379.70;129490;1262;115781;-65
2024/02/16 12:37:59;;;;;;;5.90;4.10;;;;;;;14.89;66.32;100370.46;129511;1272;114772;-64
2024/02/16 12:41:02;;;;;;;8.20;3.80;;;;;;;14.91;66.46;100370.71;129486;1262;114721;-65
2024/02/16 12:44:05;;;;;;;4.20;3.10;;;;;;;14.94;66.57;100369.77;129618;1263;114845;-64
2024/02/16 12:47:07;;;;;;;4.70;2.80;;;;;;;14.98;66.25;100367.15;129481;1272;114663;-65
2024/02/16 12:50:09;;;;;;;3.60;2.10;;;;;;;15.01;65.50;100361.20;129545;1280;115155;-65
2024/02/16 12:53:11;;;;;;;4.90;2.30;;;;;;;15.05;64.81;100365.31;129517;1261;114785;-64
2024/02/16 12:56:14;;;;;;;4.30;2.30;;;;;;;15.10;64.60;100366.60;129416;1262;116473;-64
2024/02/16 12:59:16;;;;;;;5.90;2.60;;;;;;;15.14;64.33;100368.84;129651;1262;114639;-65
2024/02/16 13:02:18;;;;;;;3.70;2.20;;;;;;;15.16;64.25;100369.19;129518;1261;114816;-64
2024/02/16 13:05:21;;;;;;;3.50;1.70;;;;;;;15.17;63.97;100364.64;129819;1280;115323;-65
2024/02/16 13:08:23;;;;;;;3.80;2.20;;;;;;;15.18;63.51;100358.08;129554;1265;114803;-66
2024/02/16 13:11:25;;;;;;;5.00;2.20;;;;;;;15.20;63.53;100360.14;129471;1269;114695;-64
2024/02/16 13:14:27;;;;;;;3.10;2.00;;;;;;;15.20;63.23;100357.45;129737;1263;114806;-64
2024/02/16 13:17:30;;;;;;;3.40;1.70;;;;;;;15.22;63.39;100358.25;129787;1280;114720;-64
2024/02/16 13:20:34;;;;;;;3.10;2.30;;;;;;;15.23;62.85;100354.54;129800;1280;114724;-64
2024/02/16 13:23:41;;;;;;;4.10;1.90;;;;;;;15.24;63.07;100353.79;129324;1259;114858;-73
2024/02/16 13:26:44;;;;;;;3.40;2.30;;;;;;;15.26;61.94;100354.85;129696;1262;198048;-72
2024/02/16 13:29:46;;;;;;;2.90;2.00;;;;;;;15.26;61.54;100358.84;129707;1262;114793;-72
2024/02/16 13:32:50;;;;;;;4.80;2.40;;;;;;;15.27;61.30;100360.60;129737;1261;114795;-72
2024/02/16 13:35:52;;;;;;;3.60;2.20;;;;;;;15.27;61.40;100365.27;129708;1273;115314;-72
2024/02/16 13:38:54;;;;;;;4.60;2.10;;;;;;;15.25;61.18;100363.08;129790;1261;114738;-72
2024/02/16 13:42:01;;;;;;;6.50;2.40;;;;;;;15.23;61.21;100357.27;129931;1261;114813;-73
2024/02/16 13:45:14;;;;;;;5.10;2.50;;;;;;;15.19;60.81;100351.77;129620;1268;114779;-69